sensor_id;sensor_type;location;lat;lon;timestamp;temperature;humidity
15749;DHT22;7976;52.526;13.326;2023-11-21T00:02:25;8.30;99.90
15749;DHT22;7976;52.526;13.326;2023-11-21T00:04:52;8.20;99.90
15749;DHT22;7976;52.526;13.326;2023-11-21T00:07:20;8.10;99.90
15749;DHT22;7976;52.526;13.326;2023-11-21T00:09:48;8.00;99.90
15749;DHT22;7976;52.526;13.326;2023-11-21T00:12:14;7.90;99.90
15749;DHT22;7976;52.526;13.326;2023-11-21T00:14:43;7.90;99.90
15749;DHT22;7976;52.526;13.326;2023-11-21T00:17:09;7.80;99.90
15749;DHT22;7976;52.526;13.326;2023-11-21T00:19:36;7.70;99.90
15749;DHT22;7976;52.526;13.326;2023-11-21T00:22:03;7.70;99.90
15749;DHT22;7976;52.526;13.326;2023-11-21T00:24:33;7.60;99.90
15749;DHT22;7976;52.526;13.326;2023-11-21T00:27:00;7.50;99.90
15749;DHT22;7976;52.526;13.326;2023-11-21T00:29:26;7.50;99.90
15749;DHT22;7976;52.526;13.326;2023-11-21T00:31:54;7.40;99.90
15749;DHT22;7976;52.526;13.326;2023-11-21T00:34:21;7.40;99.90
15749;DHT22;7976;52.526;13.326;2023-11-21T00:36:47;7.30;99.90
15749;DHT22;7976;52.526;13.326;2023-11-21T00:39:14;7.30;99.90
15749;DHT22;7976;52.526;13.326;2023-11-21T00:41:43;7.20;99.90
15749;DHT22;7976;52.526;13.326;2023-11-21T00:44:10;7.20;99.90
15749;DHT22;7976;52.526;13.326;2023-11-21T00:46:37;7.20;99.90
15749;DHT22;7976;52.526;13.326;2023-11-21T00:49:03;7.20;99.90
15749;DHT22;7976;52.526;13.326;2023-11-21T00:51:30;7.10;99.90
15749;DHT22;7976;52.526;13.326;2023-11-21T00:53:57;7.10;99.90
15749;DHT22;7976;52.526;13.326;2023-11-21T00:56:24;7.10;99.90
15749;DHT22;7976;52.526;13.326;2023-11-21T00:58:53;7.10;99.90
15749;DHT22;7976;52.526;13.326;2023-11-21T01:01:20;7.10;99.90
15749;DHT22;7976;52.526;13.326;2023-11-21T01:03:48;7.10;99.90
15749;DHT22;7976;52.526;13.326;2023-11-21T01:06:15;7.10;99.90
15749;DHT22;7976;52.526;13.326;2023-11-21T01:08:43;7.00;99.90
15749;DHT22;7976;52.526;13.326;2023-11-21T01:11:10;7.00;99.90
15749;DHT22;7976;52.526;13.326;2023-11-21T01:13:38;7.00;99.90
15749;DHT22;7976;52.526;13.326;2023-11-21T01:16:06;7.00;99.90
15749;DHT22;7976;52.526;13.326;2023-11-21T01:18:34;6.90;99.90
15749;DHT22;7976;52.526;13.326;2023-11-21T01:21:01;6.90;99.90
15749;DHT22;7976;52.526;13.326;2023-11-21T01:23:28;6.90;99.90
15749;DHT22;7976;52.526;13.326;2023-11-21T01:25:56;7.00;99.90
15749;DHT22;7976;52.526;13.326;2023-11-21T01:28:23;7.00;99.90
15749;DHT22;7976;52.526;13.326;2023-11-21T01:30:50;7.00;99.90
15749;DHT22;7976;52.526;13.326;2023-11-21T01:33:20;7.00;99.90
15749;DHT22;7976;52.526;13.326;2023-11-21T01:35:46;7.00;99.90
15749;DHT22;7976;52.526;13.326;2023-11-21T01:38:13;7.00;99.90
15749;DHT22;7976;52.526;13.326;2023-11-21T01:40:40;7.00;99.90
15749;DHT22;7976;52.526;13.326;2023-11-21T01:43:07;7.00;99.90
15749;DHT22;7976;52.526;13.326;2023-11-21T01:45:34;7.00;99.90
15749;DHT22;7976;52.526;13.326;2023-11-21T01:48:02;6.90;99.90
15749;DHT22;7976;52.526;13.326;2023-11-21T01:50:33;6.90;99.90
15749;DHT22;7976;52.526;13.326;2023-11-21T01:53:00;7.00;99.90
15749;DHT22;7976;52.526;13.326;2023-11-21T01:55:28;7.00;99.90
15749;DHT22;7976;52.526;13.326;2023-11-21T01:57:56;7.00;99.90
15749;DHT22;7976;52.526;13.326;2023-11-21T02:00:24;6.90;99.90
15749;DHT22;7976;52.526;13.326;2023-11-21T02:02:51;6.90;99.90
15749;DHT22;7976;52.526;13.326;2023-11-21T02:05:19;6.80;99.90
15749;DHT22;7976;52.526;13.326;2023-11-21T02:07:48;6.80;99.90
15749;DHT22;7976;52.526;13.326;2023-11-21T02:10:17;6.80;99.90
15749;DHT22;7976;52.526;13.326;2023-11-21T02:12:48;6.80;99.90
15749;DHT22;7976;52.526;13.326;2023-11-21T02:15:17;6.80;99.90
15749;DHT22;7976;52.526;13.326;2023-11-21T02:17:46;6.80;99.90
15749;DHT22;7976;52.526;13.326;2023-11-21T02:20:17;6.80;99.90
15749;DHT22;7976;52.526;13.326;2023-11-21T02:22:50;6.70;99.90
15749;DHT22;7976;52.526;13.326;2023-11-21T02:25:23;6.70;99.90
15749;DHT22;7976;52.526;13.326;2023-11-21T02:27:50;6.60;99.90
15749;DHT22;7976;52.526;13.326;2023-11-21T02:30:17;6.60;99.90
15749;DHT22;7976;52.526;13.326;2023-11-21T02:32:44;6.60;99.90
15749;DHT22;7976;52.526;13.326;2023-11-21T02:35:11;6.50;99.90
15749;DHT22;7976;52.526;13.326;2023-11-21T02:37:38;6.50;99.90
15749;DHT22;7976;52.526;13.326;2023-11-21T02:40:09;6.60;99.90
15749;DHT22;7976;52.526;13.326;2023-11-21T02:42:38;6.50;99.90
15749;DHT22;7976;52.526;13.326;2023-11-21T02:45:07;6.50;99.90
15749;DHT22;7976;52.526;13.326;2023-11-21T02:47:34;6.50;99.90
15749;DHT22;7976;52.526;13.326;2023-11-21T02:50:01;6.50;99.90
15749;DHT22;7976;52.526;13.326;2023-11-21T02:52:29;6.50;99.90
15749;DHT22;7976;52.526;13.326;2023-11-21T02:54:58;6.50;99.90
15749;DHT22;7976;52.526;13.326;2023-11-21T02:57:27;6.50;99.90
15749;DHT22;7976;52.526;13.326;2023-11-21T02:59:53;6.50;99.90
15749;DHT22;7976;52.526;13.326;2023-11-21T03:02:21;6.50;99.90
15749;DHT22;7976;52.526;13.326;2023-11-21T03:04:50;6.50;99.90
15749;DHT22;7976;52.526;13.326;2023-11-21T03:07:18;6.50;99.90
15749;DHT22;7976;52.526;13.326;2023-11-21T03:09:45;6.50;99.90
15749;DHT22;7976;52.526;13.326;2023-11-21T03:12:12;6.40;99.90
15749;DHT22;7976;52.526;13.326;2023-11-21T03:14:40;6.40;99.90
15749;DHT22;7976;52.526;13.326;2023-11-21T03:17:07;6.40;99.90
15749;DHT22;7976;52.526;13.326;2023-11-21T03:19:34;6.40;99.90
15749;DHT22;7976;52.526;13.326;2023-11-21T03:22:01;6.40;99.90
15749;DHT22;7976;52.526;13.326;2023-11-21T03:24:29;6.40;99.90
15749;DHT22;7976;52.526;13.326;2023-11-21T03:26:56;6.40;99.90
15749;DHT22;7976;52.526;13.326;2023-11-21T03:29:23;6.40;99.90
15749;DHT22;7976;52.526;13.326;2023-11-21T03:31:51;6.40;99.90
15749;DHT22;7976;52.526;13.326;2023-11-21T03:34:23;6.40;99.90
15749;DHT22;7976;52.526;13.326;2023-11-21T03:36:52;6.40;99.90
15749;DHT22;7976;52.526;13.326;2023-11-21T03:39:19;6.40;99.90
15749;DHT22;7976;52.526;13.326;2023-11-21T03:41:48;6.30;99.90
15749;DHT22;7976;52.526;13.326;2023-11-21T03:44:17;6.30;99.90
15749;DHT22;7976;52.526;13.326;2023-11-21T03:46:44;6.20;99.90
15749;DHT22;7976;52.526;13.326;2023-11-21T03:49:13;6.20;99.90
15749;DHT22;7976;52.526;13.326;2023-11-21T03:51:41;6.20;99.90
15749;DHT22;7976;52.526;13.326;2023-11-21T03:54:08;6.20;99.90
15749;DHT22;7976;52.526;13.326;2023-11-21T03:56:38;6.20;99.90
15749;DHT22;7976;52.526;13.326;2023-11-21T03:59:05;6.20;99.90
15749;DHT22;7976;52.526;13.326;2023-11-21T04:01:32;6.10;99.90
15749;DHT22;7976;52.526;13.326;2023-11-21T04:03:59;6.20;99.90
15749;DHT22;7976;52.526;13.326;2023-11-21T04:06:27;6.20;99.90
15749;DHT22;7976;52.526;13.326;2023-11-21T04:08:54;6.30;99.90
15749;DHT22;7976;52.526;13.326;2023-11-21T04:11:21;6.20;99.90
15749;DHT22;7976;52.526;13.326;2023-11-21T04:13:48;6.20;99.90
15749;DHT22;7976;52.526;13.326;2023-11-21T04:16:15;6.20;99.90
15749;DHT22;7976;52.526;13.326;2023-11-21T04:18:42;6.20;99.90
15749;DHT22;7976;52.526;13.326;2023-11-21T04:21:09;6.20;99.90
15749;DHT22;7976;52.526;13.326;2023-11-21T04:23:37;6.20;99.90
15749;DHT22;7976;52.526;13.326;2023-11-21T04:26:05;6.20;99.90
15749;DHT22;7976;52.526;13.326;2023-11-21T04:28:32;6.20;99.90
15749;DHT22;7976;52.526;13.326;2023-11-21T04:31:00;6.20;99.90
15749;DHT22;7976;52.526;13.326;2023-11-21T04:33:27;6.10;99.90
15749;DHT22;7976;52.526;13.326;2023-11-21T04:35:54;6.10;99.90
15749;DHT22;7976;52.526;13.326;2023-11-21T04:38:21;6.10;99.90
15749;DHT22;7976;52.526;13.326;2023-11-21T04:40:49;6.10;99.90
15749;DHT22;7976;52.526;13.326;2023-11-21T04:43:16;6.00;99.90
15749;DHT22;7976;52.526;13.326;2023-11-21T04:45:43;6.10;99.90
15749;DHT22;7976;52.526;13.326;2023-11-21T04:48:09;6.10;99.90
15749;DHT22;7976;52.526;13.326;2023-11-21T04:50:36;6.10;99.90
15749;DHT22;7976;52.526;13.326;2023-11-21T04:53:04;6.20;99.90
15749;DHT22;7976;52.526;13.326;2023-11-21T04:55:31;6.10;99.90
15749;DHT22;7976;52.526;13.326;2023-11-21T04:57:59;6.10;99.90
15749;DHT22;7976;52.526;13.326;2023-11-21T05:00:26;6.10;99.90
15749;DHT22;7976;52.526;13.326;2023-11-21T05:02:53;6.00;99.90
15749;DHT22;7976;52.526;13.326;2023-11-21T05:05:19;6.10;99.90
15749;DHT22;7976;52.526;13.326;2023-11-21T05:07:46;6.00;99.90
15749;DHT22;7976;52.526;13.326;2023-11-21T05:10:14;6.00;99.90
15749;DHT22;7976;52.526;13.326;2023-11-21T05:12:41;6.00;99.90
15749;DHT22;7976;52.526;13.326;2023-11-21T05:15:13;6.00;99.90
15749;DHT22;7976;52.526;13.326;2023-11-21T05:17:42;5.90;99.90
15749;DHT22;7976;52.526;13.326;2023-11-21T05:20:11;5.80;99.90
15749;DHT22;7976;52.526;13.326;2023-11-21T05:22:40;5.90;99.90
15749;DHT22;7976;52.526;13.326;2023-11-21T05:25:08;5.80;99.90
15749;DHT22;7976;52.526;13.326;2023-11-21T05:27:35;5.80;99.90
15749;DHT22;7976;52.526;13.326;2023-11-21T05:30:03;5.80;99.90
15749;DHT22;7976;52.526;13.326;2023-11-21T05:32:34;5.80;99.90
15749;DHT22;7976;52.526;13.326;2023-11-21T05:35:04;5.90;99.90
15749;DHT22;7976;52.526;13.326;2023-11-21T05:37:35;5.80;99.90
15749;DHT22;7976;52.526;13.326;2023-11-21T05:40:06;5.80;99.90
15749;DHT22;7976;52.526;13.326;2023-11-21T05:42:33;5.70;99.90
15749;DHT22;7976;52.526;13.326;2023-11-21T05:45:01;5.70;99.90
15749;DHT22;7976;52.526;13.326;2023-11-21T05:47:37;5.70;99.90
15749;DHT22;7976;52.526;13.326;2023-11-21T05:50:07;5.70;99.90
15749;DHT22;7976;52.526;13.326;2023-11-21T05:52:40;5.70;99.90
15749;DHT22;7976;52.526;13.326;2023-11-21T05:55:11;5.70;99.90
15749;DHT22;7976;52.526;13.326;2023-11-21T05:57:39;5.70;99.90
15749;DHT22;7976;52.526;13.326;2023-11-21T06:00:08;5.70;99.90
15749;DHT22;7976;52.526;13.326;2023-11-21T06:02:40;5.70;99.90
15749;DHT22;7976;52.526;13.326;2023-11-21T06:05:08;5.70;99.90
15749;DHT22;7976;52.526;13.326;2023-11-21T06:07:35;5.70;99.90
15749;DHT22;7976;52.526;13.326;2023-11-21T06:10:05;5.70;99.90
15749;DHT22;7976;52.526;13.326;2023-11-21T06:12:34;5.60;99.90
15749;DHT22;7976;52.526;13.326;2023-11-21T06:15:02;5.60;99.90
15749;DHT22;7976;52.526;13.326;2023-11-21T06:17:31;5.60;99.90
15749;DHT22;7976;52.526;13.326;2023-11-21T06:19:59;5.60;99.90
15749;DHT22;7976;52.526;13.326;2023-11-21T06:22:26;5.60;99.90
15749;DHT22;7976;52.526;13.326;2023-11-21T06:24:53;5.60;99.90
15749;DHT22;7976;52.526;13.326;2023-11-21T06:27:20;5.60;99.90
15749;DHT22;7976;52.526;13.326;2023-11-21T06:29:47;5.60;99.90
15749;DHT22;7976;52.526;13.326;2023-11-21T06:32:14;5.60;99.90
15749;DHT22;7976;52.526;13.326;2023-11-21T06:34:41;5.50;99.90
15749;DHT22;7976;52.526;13.326;2023-11-21T06:37:10;5.50;99.90
15749;DHT22;7976;52.526;13.326;2023-11-21T06:39:37;5.60;99.90
15749;DHT22;7976;52.526;13.326;2023-11-21T06:42:05;5.50;99.90
15749;DHT22;7976;52.526;13.326;2023-11-21T06:44:32;5.50;99.90
15749;DHT22;7976;52.526;13.326;2023-11-21T06:47:00;5.50;99.90
15749;DHT22;7976;52.526;13.326;2023-11-21T06:49:28;5.60;99.90
15749;DHT22;7976;52.526;13.326;2023-11-21T06:51:54;5.50;99.90
15749;DHT22;7976;52.526;13.326;2023-11-21T06:54:23;5.60;99.90
15749;DHT22;7976;52.526;13.326;2023-11-21T06:56:50;5.60;99.90
15749;DHT22;7976;52.526;13.326;2023-11-21T06:59:18;5.60;99.90
15749;DHT22;7976;52.526;13.326;2023-11-21T07:01:45;5.60;99.90
15749;DHT22;7976;52.526;13.326;2023-11-21T07:04:12;5.60;99.90
15749;DHT22;7976;52.526;13.326;2023-11-21T07:06:39;5.60;99.90
15749;DHT22;7976;52.526;13.326;2023-11-21T07:09:06;5.60;99.90
15749;DHT22;7976;52.526;13.326;2023-11-21T07:11:35;5.60;99.90
15749;DHT22;7976;52.526;13.326;2023-11-21T07:14:02;5.50;99.90
15749;DHT22;7976;52.526;13.326;2023-11-21T07:16:33;5.50;99.90
15749;DHT22;7976;52.526;13.326;2023-11-21T07:19:02;5.50;99.90
15749;DHT22;7976;52.526;13.326;2023-11-21T07:21:31;5.50;99.90
15749;DHT22;7976;52.526;13.326;2023-11-21T07:23:58;5.50;99.90
15749;DHT22;7976;52.526;13.326;2023-11-21T07:26:26;5.50;99.90
15749;DHT22;7976;52.526;13.326;2023-11-21T07:28:55;5.50;99.90
15749;DHT22;7976;52.526;13.326;2023-11-21T07:31:22;5.50;99.90
15749;DHT22;7976;52.526;13.326;2023-11-21T07:33:50;5.50;99.90
15749;DHT22;7976;52.526;13.326;2023-11-21T07:36:18;5.50;99.90
15749;DHT22;7976;52.526;13.326;2023-11-21T07:38:46;5.50;99.90
15749;DHT22;7976;52.526;13.326;2023-11-21T07:41:14;5.50;99.90
15749;DHT22;7976;52.526;13.326;2023-11-21T07:43:41;5.50;99.90
15749;DHT22;7976;52.526;13.326;2023-11-21T07:46:10;5.50;99.90
15749;DHT22;7976;52.526;13.326;2023-11-21T07:48:38;5.50;99.90
15749;DHT22;7976;52.526;13.326;2023-11-21T07:51:06;5.50;99.90
15749;DHT22;7976;52.526;13.326;2023-11-21T07:53:34;5.50;99.90
15749;DHT22;7976;52.526;13.326;2023-11-21T07:56:03;5.50;99.90
15749;DHT22;7976;52.526;13.326;2023-11-21T07:58:31;5.60;99.90
15749;DHT22;7976;52.526;13.326;2023-11-21T08:00:59;5.60;99.90
15749;DHT22;7976;52.526;13.326;2023-11-21T08:03:27;5.60;99.90
15749;DHT22;7976;52.526;13.326;2023-11-21T08:05:55;5.60;99.90
15749;DHT22;7976;52.526;13.326;2023-11-21T08:08:23;5.60;99.90
15749;DHT22;7976;52.526;13.326;2023-11-21T08:10:49;5.60;99.90
15749;DHT22;7976;52.526;13.326;2023-11-21T08:13:21;5.60;99.90
15749;DHT22;7976;52.526;13.326;2023-11-21T08:15:49;5.60;99.90
15749;DHT22;7976;52.526;13.326;2023-11-21T08:18:16;5.60;99.90
15749;DHT22;7976;52.526;13.326;2023-11-21T08:20:44;5.60;99.90
15749;DHT22;7976;52.526;13.326;2023-11-21T08:23:13;5.60;99.90
15749;DHT22;7976;52.526;13.326;2023-11-21T08:25:42;5.50;99.90
15749;DHT22;7976;52.526;13.326;2023-11-21T08:28:09;5.50;99.90
15749;DHT22;7976;52.526;13.326;2023-11-21T08:30:36;5.50;99.90
15749;DHT22;7976;52.526;13.326;2023-11-21T08:33:03;5.50;99.90
15749;DHT22;7976;52.526;13.326;2023-11-21T08:35:30;5.50;99.90
15749;DHT22;7976;52.526;13.326;2023-11-21T08:37:59;5.50;99.90
15749;DHT22;7976;52.526;13.326;2023-11-21T08:40:26;5.50;99.90
15749;DHT22;7976;52.526;13.326;2023-11-21T08:42:53;5.50;99.90
15749;DHT22;7976;52.526;13.326;2023-11-21T08:45:21;5.50;99.90
15749;DHT22;7976;52.526;13.326;2023-11-21T08:47:48;5.50;99.90
15749;DHT22;7976;52.526;13.326;2023-11-21T08:50:15;5.50;99.90
15749;DHT22;7976;52.526;13.326;2023-11-21T08:52:44;5.60;99.90
15749;DHT22;7976;52.526;13.326;2023-11-21T08:55:13;5.60;99.90
15749;DHT22;7976;52.526;13.326;2023-11-21T08:57:43;5.60;99.90
15749;DHT22;7976;52.526;13.326;2023-11-21T09:00:11;5.70;99.90
15749;DHT22;7976;52.526;13.326;2023-11-21T09:02:39;5.80;99.90
15749;DHT22;7976;52.526;13.326;2023-11-21T09:05:07;5.80;99.90
15749;DHT22;7976;52.526;13.326;2023-11-21T09:07:36;5.80;99.90
15749;DHT22;7976;52.526;13.326;2023-11-21T09:10:03;5.80;99.90
15749;DHT22;7976;52.526;13.326;2023-11-21T09:12:34;5.70;99.90
15749;DHT22;7976;52.526;13.326;2023-11-21T09:15:03;5.70;99.90
15749;DHT22;7976;52.526;13.326;2023-11-21T09:17:31;5.70;99.90
15749;DHT22;7976;52.526;13.326;2023-11-21T09:19:58;5.60;99.90
15749;DHT22;7976;52.526;13.326;2023-11-21T09:22:25;5.70;99.90
15749;DHT22;7976;52.526;13.326;2023-11-21T09:24:52;5.70;99.90
15749;DHT22;7976;52.526;13.326;2023-11-21T09:27:19;5.70;99.90
15749;DHT22;7976;52.526;13.326;2023-11-21T09:29:48;5.70;99.90
15749;DHT22;7976;52.526;13.326;2023-11-21T09:32:15;5.70;99.90
15749;DHT22;7976;52.526;13.326;2023-11-21T09:34:44;5.70;99.90
15749;DHT22;7976;52.526;13.326;2023-11-21T09:37:11;5.70;99.90
15749;DHT22;7976;52.526;13.326;2023-11-21T09:39:38;5.70;99.90
15749;DHT22;7976;52.526;13.326;2023-11-21T09:42:10;5.70;99.90
15749;DHT22;7976;52.526;13.326;2023-11-21T09:44:46;5.70;99.90
15749;DHT22;7976;52.526;13.326;2023-11-21T09:47:21;5.70;99.90
15749;DHT22;7976;52.526;13.326;2023-11-21T09:49:49;5.80;99.90
15749;DHT22;7976;52.526;13.326;2023-11-21T09:52:24;5.80;99.90
15749;DHT22;7976;52.526;13.326;2023-11-21T09:54:53;5.80;99.90
15749;DHT22;7976;52.526;13.326;2023-11-21T09:57:24;5.80;99.90
15749;DHT22;7976;52.526;13.326;2023-11-21T09:59:53;5.80;99.90
15749;DHT22;7976;52.526;13.326;2023-11-21T10:02:25;5.70;99.90
15749;DHT22;7976;52.526;13.326;2023-11-21T10:04:55;5.60;99.90
15749;DHT22;7976;52.526;13.326;2023-11-21T10:07:25;5.60;99.90
15749;DHT22;7976;52.526;13.326;2023-11-21T10:09:54;5.60;99.90
15749;DHT22;7976;52.526;13.326;2023-11-21T10:12:22;5.60;99.90
15749;DHT22;7976;52.526;13.326;2023-11-21T10:14:53;5.50;99.90
15749;DHT22;7976;52.526;13.326;2023-11-21T10:17:25;5.50;99.90
15749;DHT22;7976;52.526;13.326;2023-11-21T10:19:56;5.50;99.90
15749;DHT22;7976;52.526;13.326;2023-11-21T10:22:24;5.50;99.90
15749;DHT22;7976;52.526;13.326;2023-11-21T10:24:51;5.50;99.90
15749;DHT22;7976;52.526;13.326;2023-11-21T10:27:17;5.50;99.90
15749;DHT22;7976;52.526;13.326;2023-11-21T10:29:44;5.50;99.90
15749;DHT22;7976;52.526;13.326;2023-11-21T10:32:13;5.50;99.90
15749;DHT22;7976;52.526;13.326;2023-11-21T10:34:40;5.40;99.90
15749;DHT22;7976;52.526;13.326;2023-11-21T10:37:13;5.40;99.90
15749;DHT22;7976;52.526;13.326;2023-11-21T10:39:41;5.50;99.90
15749;DHT22;7976;52.526;13.326;2023-11-21T10:42:09;5.50;99.90
15749;DHT22;7976;52.526;13.326;2023-11-21T10:44:36;5.50;99.90
15749;DHT22;7976;52.526;13.326;2023-11-21T10:47:03;5.50;99.90
15749;DHT22;7976;52.526;13.326;2023-11-21T10:49:32;5.50;99.90
15749;DHT22;7976;52.526;13.326;2023-11-21T10:51:59;5.50;99.90
15749;DHT22;7976;52.526;13.326;2023-11-21T10:54:26;5.40;99.90
15749;DHT22;7976;52.526;13.326;2023-11-21T10:56:56;5.40;99.90
15749;DHT22;7976;52.526;13.326;2023-11-21T10:59:26;5.40;99.90
15749;DHT22;7976;52.526;13.326;2023-11-21T11:01:58;5.40;99.90
15749;DHT22;7976;52.526;13.326;2023-11-21T11:04:27;5.40;99.90
15749;DHT22;7976;52.526;13.326;2023-11-21T11:06:57;5.40;99.90
15749;DHT22;7976;52.526;13.326;2023-11-21T11:09:31;5.40;99.90
15749;DHT22;7976;52.526;13.326;2023-11-21T11:11:59;5.30;99.90
15749;DHT22;7976;52.526;13.326;2023-11-21T11:14:27;5.20;99.90
15749;DHT22;7976;52.526;13.326;2023-11-21T11:16:55;5.20;99.90
15749;DHT22;7976;52.526;13.326;2023-11-21T11:19:22;5.20;99.90
15749;DHT22;7976;52.526;13.326;2023-11-21T11:21:57;5.10;99.90
15749;DHT22;7976;52.526;13.326;2023-11-21T11:24:56;5.00;99.90
15749;DHT22;7976;52.526;13.326;2023-11-21T11:27:47;4.90;99.90
15749;DHT22;7976;52.526;13.326;2023-11-21T11:30:27;4.80;99.90
15749;DHT22;7976;52.526;13.326;2023-11-21T11:33:11;4.80;99.90
15749;DHT22;7976;52.526;13.326;2023-11-21T11:35:56;4.80;99.90
15749;DHT22;7976;52.526;13.326;2023-11-21T11:38:32;4.80;99.90
15749;DHT22;7976;52.526;13.326;2023-11-21T11:41:02;4.80;99.90
15749;DHT22;7976;52.526;13.326;2023-11-21T11:43:31;4.80;99.90
15749;DHT22;7976;52.526;13.326;2023-11-21T11:46:05;4.70;99.90
15749;DHT22;7976;52.526;13.326;2023-11-21T11:48:37;4.70;99.90
15749;DHT22;7976;52.526;13.326;2023-11-21T11:51:10;4.70;99.90
15749;DHT22;7976;52.526;13.326;2023-11-21T11:53:41;4.70;99.90
15749;DHT22;7976;52.526;13.326;2023-11-21T11:56:25;4.80;99.90
15749;DHT22;7976;52.526;13.326;2023-11-21T11:58:55;4.80;99.90
15749;DHT22;7976;52.526;13.326;2023-11-21T12:01:25;4.80;99.90
15749;DHT22;7976;52.526;13.326;2023-11-21T12:04:23;4.80;99.90
15749;DHT22;7976;52.526;13.326;2023-11-21T12:06:59;4.90;99.90
15749;DHT22;7976;52.526;13.326;2023-11-21T12:09:30;4.90;99.90
15749;DHT22;7976;52.526;13.326;2023-11-21T12:11:58;5.00;99.90
15749;DHT22;7976;52.526;13.326;2023-11-21T12:14:26;5.00;99.90
15749;DHT22;7976;52.526;13.326;2023-11-21T12:16:54;5.00;99.90
15749;DHT22;7976;52.526;13.326;2023-11-21T12:19:21;5.00;99.90
15749;DHT22;7976;52.526;13.326;2023-11-21T12:21:49;5.00;99.90
15749;DHT22;7976;52.526;13.326;2023-11-21T12:24:16;5.00;99.90
15749;DHT22;7976;52.526;13.326;2023-11-21T12:26:44;5.10;99.90
15749;DHT22;7976;52.526;13.326;2023-11-21T12:29:11;5.10;99.90
15749;DHT22;7976;52.526;13.326;2023-11-21T12:31:38;5.10;99.90
15749;DHT22;7976;52.526;13.326;2023-11-21T12:34:06;5.00;99.90
15749;DHT22;7976;52.526;13.326;2023-11-21T12:36:37;5.00;99.90
15749;DHT22;7976;52.526;13.326;2023-11-21T12:39:04;4.90;99.90
15749;DHT22;7976;52.526;13.326;2023-11-21T12:41:34;4.90;99.90
15749;DHT22;7976;52.526;13.326;2023-11-21T12:44:03;4.90;99.90
15749;DHT22;7976;52.526;13.326;2023-11-21T12:46:30;4.90;99.90
15749;DHT22;7976;52.526;13.326;2023-11-21T12:48:59;4.90;99.90
15749;DHT22;7976;52.526;13.326;2023-11-21T12:51:26;5.00;99.90
15749;DHT22;7976;52.526;13.326;2023-11-21T12:53:55;5.00;99.90
15749;DHT22;7976;52.526;13.326;2023-11-21T12:56:22;5.10;99.90
15749;DHT22;7976;52.526;13.326;2023-11-21T12:58:50;5.10;99.90
15749;DHT22;7976;52.526;13.326;2023-11-21T13:01:21;5.20;99.90
15749;DHT22;7976;52.526;13.326;2023-11-21T13:03:53;5.20;99.90
15749;DHT22;7976;52.526;13.326;2023-11-21T13:06:20;5.20;99.90
15749;DHT22;7976;52.526;13.326;2023-11-21T13:08:50;5.20;99.90
15749;DHT22;7976;52.526;13.326;2023-11-21T13:11:17;5.00;99.90
15749;DHT22;7976;52.526;13.326;2023-11-21T13:13:44;5.00;99.90
15749;DHT22;7976;52.526;13.326;2023-11-21T13:16:11;5.00;99.90
15749;DHT22;7976;52.526;13.326;2023-11-21T13:18:39;5.00;99.90
15749;DHT22;7976;52.526;13.326;2023-11-21T13:21:08;5.00;99.90
15749;DHT22;7976;52.526;13.326;2023-11-21T13:23:39;5.00;99.90
15749;DHT22;7976;52.526;13.326;2023-11-21T13:26:07;5.00;99.90
15749;DHT22;7976;52.526;13.326;2023-11-21T13:28:35;5.00;99.90
15749;DHT22;7976;52.526;13.326;2023-11-21T13:31:04;4.90;99.90
15749;DHT22;7976;52.526;13.326;2023-11-21T13:33:47;4.90;99.90
15749;DHT22;7976;52.526;13.326;2023-11-21T13:36:20;4.80;99.90
15749;DHT22;7976;52.526;13.326;2023-11-21T13:38:49;4.80;99.90
15749;DHT22;7976;52.526;13.326;2023-11-21T13:41:18;4.80;99.90
15749;DHT22;7976;52.526;13.326;2023-11-21T13:43:45;4.80;99.90
15749;DHT22;7976;52.526;13.326;2023-11-21T13:46:18;4.80;99.90
15749;DHT22;7976;52.526;13.326;2023-11-21T13:48:49;4.80;99.90
15749;DHT22;7976;52.526;13.326;2023-11-21T13:51:21;4.70;99.90
15749;DHT22;7976;52.526;13.326;2023-11-21T13:53:56;4.60;99.90
15749;DHT22;7976;52.526;13.326;2023-11-21T13:56:24;4.60;99.90
15749;DHT22;7976;52.526;13.326;2023-11-21T13:58:54;4.70;99.90
15749;DHT22;7976;52.526;13.326;2023-11-21T14:01:22;4.70;99.90
15749;DHT22;7976;52.526;13.326;2023-11-21T14:04:14;4.60;99.90
15749;DHT22;7976;52.526;13.326;2023-11-21T14:06:56;4.60;99.90
15749;DHT22;7976;52.526;13.326;2023-11-21T14:09:26;4.60;99.90
15749;DHT22;7976;52.526;13.326;2023-11-21T14:12:01;4.60;99.90
15749;DHT22;7976;52.526;13.326;2023-11-21T14:14:31;4.60;99.90
15749;DHT22;7976;52.526;13.326;2023-11-21T14:16:59;4.60;99.90
15749;DHT22;7976;52.526;13.326;2023-11-21T14:19:33;4.50;99.90
15749;DHT22;7976;52.526;13.326;2023-11-21T14:22:06;4.40;99.90
15749;DHT22;7976;52.526;13.326;2023-11-21T14:24:33;4.40;99.90
15749;DHT22;7976;52.526;13.326;2023-11-21T14:26:59;4.40;99.90
15749;DHT22;7976;52.526;13.326;2023-11-21T14:29:26;4.40;99.90
15749;DHT22;7976;52.526;13.326;2023-11-21T14:31:55;4.20;99.90
15749;DHT22;7976;52.526;13.326;2023-11-21T14:34:23;4.20;99.90
15749;DHT22;7976;52.526;13.326;2023-11-21T14:36:53;4.10;99.90
15749;DHT22;7976;52.526;13.326;2023-11-21T14:39:20;4.10;99.90
15749;DHT22;7976;52.526;13.326;2023-11-21T14:41:52;4.00;99.90
15749;DHT22;7976;52.526;13.326;2023-11-21T14:44:21;4.00;99.90
15749;DHT22;7976;52.526;13.326;2023-11-21T14:46:51;4.00;99.90
15749;DHT22;7976;52.526;13.326;2023-11-21T14:49:20;4.00;99.90
15749;DHT22;7976;52.526;13.326;2023-11-21T14:51:51;3.90;99.90
15749;DHT22;7976;52.526;13.326;2023-11-21T14:54:27;3.90;99.90
15749;DHT22;7976;52.526;13.326;2023-11-21T14:57:06;3.80;99.90
15749;DHT22;7976;52.526;13.326;2023-11-21T14:59:37;3.80;99.90
15749;DHT22;7976;52.526;13.326;2023-11-21T15:02:04;3.80;99.90
15749;DHT22;7976;52.526;13.326;2023-11-21T15:04:41;3.80;99.90
15749;DHT22;7976;52.526;13.326;2023-11-21T15:07:10;3.80;99.90
15749;DHT22;7976;52.526;13.326;2023-11-21T15:09:37;3.70;99.90
15749;DHT22;7976;52.526;13.326;2023-11-21T15:12:08;3.80;99.90
15749;DHT22;7976;52.526;13.326;2023-11-21T15:14:41;3.80;99.90
15749;DHT22;7976;52.526;13.326;2023-11-21T15:17:11;3.80;99.90
15749;DHT22;7976;52.526;13.326;2023-11-21T15:19:41;3.80;99.90
15749;DHT22;7976;52.526;13.326;2023-11-21T15:22:10;3.80;99.90
15749;DHT22;7976;52.526;13.326;2023-11-21T15:24:40;3.90;99.90
15749;DHT22;7976;52.526;13.326;2023-11-21T15:27:13;3.90;99.90
15749;DHT22;7976;52.526;13.326;2023-11-21T15:29:41;3.80;99.90
15749;DHT22;7976;52.526;13.326;2023-11-21T15:32:09;3.90;99.90
15749;DHT22;7976;52.526;13.326;2023-11-21T15:34:37;3.90;99.90
15749;DHT22;7976;52.526;13.326;2023-11-21T15:37:05;3.90;99.90
15749;DHT22;7976;52.526;13.326;2023-11-21T15:39:37;3.90;99.90
15749;DHT22;7976;52.526;13.326;2023-11-21T15:42:04;3.80;99.90
15749;DHT22;7976;52.526;13.326;2023-11-21T15:44:33;3.90;99.90
15749;DHT22;7976;52.526;13.326;2023-11-21T15:47:03;3.80;99.90
15749;DHT22;7976;52.526;13.326;2023-11-21T15:49:32;3.80;99.90
15749;DHT22;7976;52.526;13.326;2023-11-21T15:52:04;3.80;99.90
15749;DHT22;7976;52.526;13.326;2023-11-21T15:54:34;3.80;99.90
15749;DHT22;7976;52.526;13.326;2023-11-21T15:57:04;3.80;99.90